EIN3308 EIDW-EGHI
Flight info
| Callsign | EIN3308 |
|---|---|
| Flight time | N/A |
| Altitude | 31000 |
| Route | PESIT2J PESIT DCT BAKUR DCT GUBJE DCT DAVAZ DCT AVZAC DCT ICOSA DCT RUHUN DCT HAWFA L607 NUCHU L18 NUBRI BUGUP1S |
| Aircraft | RJ85/M-SDFGIRWY/LB1 |
Departure
| Time | N/A |
|---|---|
| Airport | Dublin Airport (EIDW) |
Arrival
| Time | 2026-05-05 18:34 |
|---|---|
| Airport | Southampton Airport (EGHI) |
| Time | Latitude | Longitude | Altitude | Speed | Heading |
|---|---|---|---|---|---|
| 2026-05-05 18:14 | 51.45791 | -1.89075 | 11610 ft | 254 kts | 71° |
| 2026-05-05 18:14 | 51.46271 | -1.86349 | 11206 ft | 251 kts | 73° |
| 2026-05-05 18:14 | 51.46685 | -1.83654 | 11060 ft | 248 kts | 75° |
| 2026-05-05 18:14 | 51.46980 | -1.80893 | 10998 ft | 254 kts | 88° |
| 2026-05-05 18:15 | 51.46618 | -1.78030 | 11004 ft | 278 kts | 105° |
| 2026-05-05 18:15 | 51.45996 | -1.74872 | 11027 ft | 314 kts | 108° |
| 2026-05-05 18:15 | 51.45263 | -1.71490 | 11017 ft | 322 kts | 109° |
| 2026-05-05 18:15 | 51.44470 | -1.68116 | 10998 ft | 323 kts | 110° |
| 2026-05-05 18:16 | 51.43657 | -1.64753 | 10982 ft | 326 kts | 110° |
| 2026-05-05 18:16 | 51.42838 | -1.61384 | 10974 ft | 321 kts | 110° |
| 2026-05-05 18:16 | 51.42031 | -1.58032 | 10957 ft | 321 kts | 110° |
| 2026-05-05 18:16 | 51.41236 | -1.54687 | 10951 ft | 321 kts | 109° |
| 2026-05-05 18:17 | 51.40451 | -1.51319 | 10942 ft | 322 kts | 109° |
| 2026-05-05 18:17 | 51.39662 | -1.47948 | 10939 ft | 325 kts | 109° |
| 2026-05-05 18:17 | 51.38869 | -1.44580 | 10938 ft | 323 kts | 109° |
| 2026-05-05 18:17 | 51.38084 | -1.41225 | 10938 ft | 319 kts | 109° |
| 2026-05-05 18:18 | 51.37303 | -1.37877 | 10936 ft | 322 kts | 109° |
| 2026-05-05 18:18 | 51.36518 | -1.34526 | 10934 ft | 322 kts | 109° |
| 2026-05-05 18:18 | 51.35730 | -1.31173 | 10936 ft | 322 kts | 110° |
| 2026-05-05 18:18 | 51.34940 | -1.27824 | 10941 ft | 321 kts | 111° |
| 2026-05-05 18:19 | 51.33757 | -1.24817 | 10929 ft | 322 kts | 136° |
| 2026-05-05 18:19 | 51.31914 | -1.23113 | 10935 ft | 304 kts | 165° |
| 2026-05-05 18:19 | 51.29877 | -1.22875 | 10934 ft | 286 kts | 184° |
| 2026-05-05 18:19 | 51.27940 | -1.23084 | 10916 ft | 272 kts | 185° |
| 2026-05-05 18:20 | 51.26102 | -1.23333 | 10902 ft | 260 kts | 186° |
| 2026-05-05 18:20 | 51.24295 | -1.23602 | 10625 ft | 263 kts | 186° |
| 2026-05-05 18:20 | 51.22466 | -1.23868 | 10377 ft | 263 kts | 186° |
| 2026-05-05 18:20 | 51.20647 | -1.24105 | 10133 ft | 262 kts | 185° |
| 2026-05-05 18:21 | 51.18853 | -1.24488 | 9914 ft | 259 kts | 193° |
| 2026-05-05 18:21 | 51.17105 | -1.25165 | 9673 ft | 257 kts | 196° |
| 2026-05-05 18:21 | 51.15406 | -1.25909 | 9417 ft | 255 kts | 197° |
| 2026-05-05 18:21 | 51.13701 | -1.26681 | 9144 ft | 255 kts | 197° |
| 2026-05-05 18:22 | 51.12005 | -1.27436 | 8989 ft | 250 kts | 197° |
| 2026-05-05 18:22 | 51.10343 | -1.28172 | 8950 ft | 247 kts | 197° |
| 2026-05-05 18:22 | 51.08688 | -1.28900 | 8944 ft | 246 kts | 197° |
| 2026-05-05 18:22 | 51.07035 | -1.29614 | 8951 ft | 246 kts | 196° |
| 2026-05-05 18:23 | 51.05379 | -1.30308 | 8946 ft | 246 kts | 195° |
| 2026-05-05 18:23 | 51.03723 | -1.31001 | 8946 ft | 246 kts | 195° |
| 2026-05-05 18:23 | 51.02068 | -1.31691 | 8952 ft | 246 kts | 196° |
| 2026-05-05 18:23 | 51.00405 | -1.32380 | 8954 ft | 246 kts | 195° |
| 2026-05-05 18:24 | 50.98745 | -1.33065 | 8951 ft | 246 kts | 195° |
| 2026-05-05 18:24 | 50.97081 | -1.33746 | 8945 ft | 248 kts | 196° |
| 2026-05-05 18:24 | 50.95424 | -1.34466 | 8938 ft | 246 kts | 198° |
| 2026-05-05 18:24 | 50.93797 | -1.35358 | 8826 ft | 250 kts | 202° |
| 2026-05-05 18:25 | 50.92120 | -1.36312 | 8324 ft | 262 kts | 192° |
| 2026-05-05 18:25 | 50.90918 | -1.36505 | 8012 ft | 262 kts | 181° |
| 2026-05-05 18:25 | 50.88519 | -1.36597 | 7343 ft | 256 kts | 181° |
| 2026-05-05 18:25 | 50.86728 | -1.36672 | 6854 ft | 264 kts | 181° |
| 2026-05-05 18:26 | 50.84882 | -1.36732 | 6383 ft | 258 kts | 181° |
| 2026-05-05 18:26 | 50.83174 | -1.36775 | 5856 ft | 234 kts | 181° |
| 2026-05-05 18:26 | 50.81520 | -1.36820 | 5323 ft | 247 kts | 180° |
| 2026-05-05 18:26 | 50.79821 | -1.36878 | 4845 ft | 236 kts | 180° |
| 2026-05-05 18:27 | 50.78219 | -1.36957 | 4463 ft | 230 kts | 180° |
| 2026-05-05 18:27 | 50.76605 | -1.37036 | 4155 ft | 230 kts | 180° |
| 2026-05-05 18:27 | 50.75020 | -1.37171 | 4023 ft | 231 kts | 189° |
| 2026-05-05 18:27 | 50.73622 | -1.38319 | 3918 ft | 232 kts | 229° |
| 2026-05-05 18:28 | 50.73196 | -1.42992 | 3220 ft | 213 kts | 304° |
| 2026-05-05 18:28 | 50.74289 | -1.44476 | 2885 ft | 210 kts | 343° |
| 2026-05-05 18:28 | 50.75705 | -1.44797 | 2691 ft | 199 kts | 356° |
| 2026-05-05 18:29 | 50.77047 | -1.44935 | 2597 ft | 190 kts | 358° |
| 2026-05-05 18:29 | 50.78348 | -1.44829 | 2545 ft | 181 kts | 15° |
| 2026-05-05 18:29 | 50.79541 | -1.44227 | 2524 ft | 181 kts | 19° |
| 2026-05-05 18:29 | 50.80728 | -1.43558 | 2511 ft | 180 kts | 20° |
| 2026-05-05 18:30 | 50.81874 | -1.42930 | 2494 ft | 171 kts | 17° |
| 2026-05-05 18:30 | 50.83010 | -1.42360 | 2503 ft | 172 kts | 18° |
| 2026-05-05 18:30 | 50.84173 | -1.41750 | 2253 ft | 178 kts | 19° |
| 2026-05-05 18:30 | 50.85278 | -1.41126 | 1937 ft | 158 kts | 19° |
| 2026-05-05 18:31 | 50.86278 | -1.40568 | 1773 ft | 149 kts | 20° |
| 2026-05-05 18:31 | 50.87214 | -1.40048 | 1671 ft | 137 kts | 19° |
| 2026-05-05 18:31 | 50.88055 | -1.39577 | 1543 ft | 125 kts | 19° |
| 2026-05-05 18:31 | 50.88868 | -1.39124 | 1222 ft | 121 kts | 18° |
| 2026-05-05 18:32 | 50.89625 | -1.38688 | 1032 ft | 118 kts | 18° |
| 2026-05-05 18:32 | 50.90419 | -1.38244 | 851 ft | 120 kts | 19° |
| 2026-05-05 18:32 | 50.91196 | -1.37788 | 745 ft | 120 kts | 16° |
| 2026-05-05 18:32 | 50.91996 | -1.37364 | 588 ft | 118 kts | 16° |
| 2026-05-05 18:33 | 50.92783 | -1.36918 | 394 ft | 121 kts | 18° |
| 2026-05-05 18:33 | 50.93588 | -1.36477 | 264 ft | 124 kts | 18° |
| 2026-05-05 18:33 | 50.94396 | -1.36032 | 60 ft | 122 kts | 19° |
| 2026-05-05 18:33 | 50.95100 | -1.35641 | 40 ft | 82 kts | 19° |
| 2026-05-05 18:34 | 50.95461 | -1.35439 | 41 ft | 36 kts | 18° |
| 2026-05-05 18:34 | 50.95659 | -1.35327 | 44 ft | 26 kts | 20° |
| 2026-05-05 18:34 | 50.95766 | -1.35267 | 43 ft | 0 kts | 18° |
| 2026-05-05 18:35 | 50.95806 | -1.35247 | 42 ft | 14 kts | 11° |
| 2026-05-05 18:35 | 50.95889 | -1.35252 | 42 ft | 10 kts | 38° |
| 2026-05-05 18:36 | 50.95891 | -1.35234 | 42 ft | 7 kts | 115° |
| 2026-05-05 18:36 | 50.95809 | -1.35244 | 43 ft | 18 kts | 198° |
| 2026-05-05 18:36 | 50.95645 | -1.35336 | 43 ft | 31 kts | 199° |
| 2026-05-05 18:36 | 50.95411 | -1.35468 | 41 ft | 37 kts | 199° |
| 2026-05-05 18:37 | 50.95181 | -1.35591 | 40 ft | 34 kts | 202° |
| 2026-05-05 18:37 | 50.95030 | -1.35683 | 39 ft | 13 kts | 217° |
| 2026-05-05 18:37 | 50.95033 | -1.35794 | 39 ft | 10 kts | 290° |
| 2026-05-05 18:37 | 50.95054 | -1.35889 | 39 ft | 8 kts | 287° |
| 2026-05-05 18:38 | 50.95054 | -1.35896 | 39 ft | 1 kts | 274° |
| 2026-05-05 18:38 | 50.95030 | -1.35935 | 39 ft | 10 kts | 198° |
| 2026-05-05 18:38 | 50.94963 | -1.35971 | 39 ft | 9 kts | 200° |
| 2026-05-05 18:38 | 50.94906 | -1.36004 | 39 ft | 9 kts | 201° |
| 2026-05-05 18:39 | 50.94904 | -1.36092 | 39 ft | 10 kts | 289° |
| 2026-05-05 18:39 | 50.94925 | -1.36191 | 39 ft | 7 kts | 290° |
| 2026-05-05 18:39 | 50.94937 | -1.36207 | 39 ft | 2 kts | 9° |
| 2026-05-05 18:39 | 50.94963 | -1.36190 | 39 ft | 5 kts | 17° |
| 2026-05-05 18:40 | 50.94984 | -1.36179 | 39 ft | 0 kts | 19° |